Terminal Aerodrome Forecast
Issued by NWS Wichita, KS

Home | Current Version | Previous Version | Text Only | Print | Product List | Glossary Off
Versions: 1 2 3 4 5 6 7 8 9 10 11 12 13 14 15 16 17 18 19 20 21 22 23 24 25

330
FTUS43 KICT 211005 AAE
TAFICT
TAF AMD
KICT 211005Z 2110/2206 17009KT P6SM SCT040 OVC300
     FM211200 12007KT 6SM BR VCTS SCT013 OVC025CB
     FM211500 14009KT P6SM OVC025
     FM211800 14013KT P6SM OVC035
     FM212000 13013KT P6SM OVC035=

USA.gov is the U.S. government's official web portal to all federal, state and local government web resources and services.